Time;durP1;ratioP1;P1;durP2;ratioP2;P2;SDS_P1;SDS_P2;PMS_P1;PMS_P2;Temp;Humidity;BMP_temperature;BMP_pressure;BME280_temperature;BME280_humidity;BME280_pressure;Samples;Min_cycle;Max_cycle;Signal;HPM_P1;HPM_P2
2024/02/12 00:01:56;;;;;;;8.55;3.67;;;;;;;;;;4916869;29;20035;-80
2024/02/12 00:04:27;;;;;;;8.95;3.78;;;;;;;;;;4931770;29;20042;-81
2024/02/12 00:06:56;;;;;;;7.85;3.08;;;;;;;;;;4930525;29;20490;-80
2024/02/12 00:09:22;;;;;;;10.38;3.53;;;;;;;;;;4932389;29;20036;-80
2024/02/12 00:11:48;;;;;;;6.50;3.22;;;;;;;;;;4916635;29;20423;-80
2024/02/12 00:14:14;;;;;;;8.38;3.10;;;;;;;;;;4916380;29;20040;-81
2024/02/12 00:16:40;;;;;;;7.22;3.08;;;;;;;;;;4919865;29;20123;-81
2024/02/12 00:19:08;;;;;;;8.00;3.15;;;;;;;;;;4915841;29;20036;-80
2024/02/12 00:21:36;;;;;;;8.00;3.40;;;;;;;;;;4915783;29;20031;-81
2024/02/12 00:24:02;;;;;;;6.68;3.63;;;;;;;;;;4930688;29;20289;-80
2024/02/12 00:26:28;;;;;;;7.72;3.45;;;;;;;;;;4917774;29;20043;-80
2024/02/12 00:28:56;;;;;;;6.93;2.97;;;;;;;;;;4916555;29;20500;-80
2024/02/12 00:31:22;;;;;;;6.75;3.08;;;;;;;;;;4918432;29;20508;-80
2024/02/12 00:33:49;;;;;;;5.88;3.35;;;;;;;;;;4919613;29;20043;-80
2024/02/12 00:36:15;;;;;;;6.43;2.92;;;;;;;;;;4933884;29;20043;-80
2024/02/12 00:38:42;;;;;;;7.80;2.85;;;;;;;;;;4933189;29;20036;-81
2024/02/12 00:41:12;;;;;;;7.72;3.17;;;;;;;;;;4918705;29;20087;-79
2024/02/12 00:43:37;;;;;;;9.63;3.60;;;;;;;;;;4922182;29;20032;-80
2024/02/12 00:46:04;;;;;;;7.88;2.92;;;;;;;;;;4931320;29;20095;-80
2024/02/12 00:48:31;;;;;;;6.68;2.70;;;;;;;;;;4926635;29;20032;-80
2024/02/12 00:51:01;;;;;;;5.82;2.53;;;;;;;;;;4932251;29;20130;-81
2024/02/12 00:53:29;;;;;;;5.78;2.88;;;;;;;;;;4915516;29;20063;-80
2024/02/12 00:55:58;;;;;;;8.65;2.78;;;;;;;;;;4948324;29;20067;-79
2024/02/12 00:58:24;;;;;;;6.35;2.78;;;;;;;;;;4942082;29;20527;-79
2024/02/12 01:00:53;;;;;;;7.68;2.88;;;;;;;;;;4913197;29;20123;-80
2024/02/12 01:03:28;;;;;;;7.10;2.75;;;;;;;;;;4914677;29;20051;-80
2024/02/12 01:05:54;;;;;;;7.73;2.90;;;;;;;;;;4913001;29;20028;-79
2024/02/12 01:08:24;;;;;;;10.20;3.03;;;;;;;;;;4934019;29;20042;-81
2024/02/12 01:10:50;;;;;;;5.72;2.33;;;;;;;;;;4929146;29;20036;-79
2024/02/12 01:13:16;;;;;;;5.40;2.50;;;;;;;;;;4931063;29;20109;-80
2024/02/12 01:15:42;;;;;;;7.28;2.40;;;;;;;;;;4930790;29;20044;-79
2024/02/12 01:18:28;;;;;;;5.55;3.28;;;;;;;;;;4935109;29;20047;-81
2024/02/12 01:20:55;;;;;;;6.38;2.65;;;;;;;;;;4933864;29;20039;-80
2024/02/12 01:23:22;;;;;;;5.85;2.60;;;;;;;;;;4918504;28;20048;-79
2024/02/12 01:25:49;;;;;;;6.75;3.30;;;;;;;;;;4936278;29;20032;-80
2024/02/12 01:28:15;;;;;;;9.80;2.55;;;;;;;;;;4930524;29;20097;-80
2024/02/12 01:30:42;;;;;;;4.57;2.30;;;;;;;;;;4928537;29;20047;-80
2024/02/12 01:33:07;;;;;;;6.15;2.53;;;;;;;;;;4914949;29;20035;-80
2024/02/12 01:35:33;;;;;;;8.27;2.75;;;;;;;;;;4914121;29;20086;-80
2024/02/12 01:38:00;;;;;;;6.45;2.65;;;;;;;;;;4928098;29;20043;-79
2024/02/12 01:40:27;;;;;;;6.10;2.47;;;;;;;;;;4912725;29;20032;-79
2024/02/12 01:42:53;;;;;;;8.57;2.72;;;;;;;;;;4913677;29;20488;-80
2024/02/12 01:45:26;;;;;;;4.72;2.30;;;;;;;;;;4945615;29;20162;-80
2024/02/12 01:47:58;;;;;;;4.93;2.35;;;;;;;;;;4945828;29;20031;-79
2024/02/12 01:50:26;;;;;;;6.72;2.17;;;;;;;;;;4928993;29;20031;-78
2024/02/12 01:52:52;;;;;;;6.05;2.30;;;;;;;;;;4910675;29;20063;-79
2024/02/12 01:55:22;;;;;;;5.65;2.55;;;;;;;;;;4927962;29;20039;-80
2024/02/12 01:57:50;;;;;;;7.13;2.55;;;;;;;;;;4912021;29;20042;-79
2024/02/12 02:00:17;;;;;;;4.57;2.78;;;;;;;;;;4923387;29;20036;-79
2024/02/12 02:02:57;;;;;;;8.10;2.42;;;;;;;;;;4928113;29;20043;-79
2024/02/12 02:05:25;;;;;;;6.47;2.63;;;;;;;;;;4928049;29;20054;-79
2024/02/12 02:07:56;;;;;;;5.72;2.42;;;;;;;;;;4943156;29;20122;-79
2024/02/12 02:10:23;;;;;;;4.53;2.50;;;;;;;;;;4929394;29;20035;-79
2024/02/12 02:12:49;;;;;;;8.90;2.40;;;;;;;;;;4926579;29;20131;-79
2024/02/12 02:15:36;;;;;;;5.75;2.22;;;;;;;;;;4925953;29;20051;-80
2024/02/12 02:18:03;;;;;;;5.85;2.28;;;;;;;;;;4912526;29;20043;-78
2024/02/12 02:20:35;;;;;;;7.13;2.20;;;;;;;;;;4911741;29;20080;-80
2024/02/12 02:23:01;;;;;;;5.22;2.20;;;;;;;;;;4926839;29;20035;-80
2024/02/12 02:25:28;;;;;;;7.47;2.30;;;;;;;;;;4936714;29;20023;-80
2024/02/12 02:27:54;;;;;;;5.80;2.40;;;;;;;;;;4951437;29;20031;-79
2024/02/12 02:30:21;;;;;;;7.70;2.40;;;;;;;;;;4953225;29;20514;-79
2024/02/12 02:32:47;;;;;;;4.60;2.42;;;;;;;;;;4922825;29;20032;-79
2024/02/12 02:35:13;;;;;;;5.03;2.38;;;;;;;;;;4942651;29;20039;-79
2024/02/12 02:37:39;;;;;;;5.82;2.30;;;;;;;;;;4942380;29;20042;-79
2024/02/12 02:40:06;;;;;;;8.32;2.13;;;;;;;;;;4925866;29;20032;-80
2024/02/12 02:42:34;;;;;;;6.82;2.28;;;;;;;;;;4938359;29;20034;-81
2024/02/12 02:45:02;;;;;;;4.55;1.83;;;;;;;;;;4950620;29;20039;-79
2024/02/12 02:47:32;;;;;;;4.00;2.20;;;;;;;;;;4933322;29;20039;-79
2024/02/12 02:49:57;;;;;;;5.97;2.28;;;;;;;;;;4917628;29;20035;-79
2024/02/12 02:52:24;;;;;;;7.10;3.50;;;;;;;;;;4929089;29;20095;-79
2024/02/12 02:54:50;;;;;;;5.57;2.40;;;;;;;;;;4916728;29;20507;-79
2024/02/12 02:57:15;;;;;;;5.47;2.13;;;;;;;;;;4918328;29;20039;-79
2024/02/12 02:59:42;;;;;;;4.93;1.83;;;;;;;;;;4918136;29;20063;-79
2024/02/12 03:02:12;;;;;;;4.38;2.15;;;;;;;;;;4935063;29;20035;-79
2024/02/12 03:04:38;;;;;;;4.50;1.90;;;;;;;;;;4935212;29;20028;-79
2024/02/12 03:07:06;;;;;;;7.60;2.13;;;;;;;;;;4905517;29;20032;-80
2024/02/12 03:09:36;;;;;;;8.02;2.50;;;;;;;;;;4942860;29;20054;-81
2024/02/12 03:12:02;;;;;;;6.40;2.13;;;;;;;;;;4954667;29;20058;-78
2024/02/12 03:14:28;;;;;;;4.72;2.10;;;;;;;;;;4955759;29;20032;-80
2024/02/12 03:16:55;;;;;;;6.07;2.40;;;;;;;;;;4955585;29;20028;-80
2024/02/12 03:19:20;;;;;;;5.78;2.45;;;;;;;;;;4954141;29;20143;-79
2024/02/12 03:21:50;;;;;;;6.70;2.50;;;;;;;;;;4938107;29;20028;-79
2024/02/12 03:24:16;;;;;;;8.73;2.45;;;;;;;;;;4922582;29;20060;-80
2024/02/12 03:26:43;;;;;;;8.02;2.30;;;;;;;;;;4954586;29;20046;-79
2024/02/12 03:29:08;;;;;;;7.38;2.30;;;;;;;;;;4958228;29;20031;-79
2024/02/12 03:31:33;;;;;;;6.82;2.40;;;;;;;;;;4956991;29;20055;-79
2024/02/12 03:33:59;;;;;;;5.82;2.33;;;;;;;;;;4956746;29;20107;-79
2024/02/12 03:36:25;;;;;;;5.30;2.28;;;;;;;;;;4957734;29;20032;-79
2024/02/12 03:38:52;;;;;;;4.18;2.15;;;;;;;;;;4942823;29;20066;-79
2024/02/12 03:41:23;;;;;;;4.45;2.03;;;;;;;;;;4951274;29;20028;-79
2024/02/12 03:43:57;;;;;;;4.95;2.30;;;;;;;;;;4924452;29;20027;-77
2024/02/12 03:46:35;;;;;;;7.53;2.20;;;;;;;;;;4920367;29;20054;-78
2024/02/12 04:00:09;;;;;;;6.40;2.58;;;;;;;;;;4936467;29;20028;-79
2024/02/12 04:02:39;;;;;;;5.85;2.15;;;;;;;;;;4941128;29;20028;-79
2024/02/12 04:05:05;;;;;;;5.28;2.63;;;;;;;;;;4940943;29;20031;-79
2024/02/12 04:07:32;;;;;;;6.37;2.77;;;;;;;;;;4916447;29;20051;-80
2024/02/12 04:09:59;;;;;;;7.22;2.42;;;;;;;;;;4912994;29;20071;-79
2024/02/12 04:12:26;;;;;;;5.47;2.10;;;;;;;;;;4933644;29;20032;-79
2024/02/12 04:14:52;;;;;;;6.53;2.30;;;;;;;;;;4927640;29;20123;-79
2024/02/12 04:17:21;;;;;;;5.60;2.22;;;;;;;;;;4933034;29;20031;-79
2024/02/12 04:19:48;;;;;;;4.53;2.33;;;;;;;;;;4946730;29;20031;-79
2024/02/12 04:22:17;;;;;;;6.47;2.33;;;;;;;;;;4946852;29;20405;-80
2024/02/12 04:24:43;;;;;;;;;;;;;;;;;;4932058;29;20052;-80
2024/02/12 04:27:09;;;;;;;6.70;2.13;;;;;;;;;;4924725;29;20705;-79
2024/02/12 04:29:42;;;;;;;7.35;2.25;;;;;;;;;;4946859;29;20024;-80
2024/02/12 04:32:11;;;;;;;5.88;2.00;;;;;;;;;;4944711;29;20059;-79
2024/02/12 04:34:42;;;;;;;6.60;2.13;;;;;;;;;;4934145;29;20530;-79
2024/02/12 04:37:12;;;;;;;5.40;2.17;;;;;;;;;;4923898;29;20028;-80
2024/02/12 04:39:38;;;;;;;5.35;2.20;;;;;;;;;;4923288;29;20036;-79
2024/02/12 04:42:04;;;;;;;4.10;2.08;;;;;;;;;;4922761;29;20040;-79
2024/02/12 04:44:29;;;;;;;7.40;2.67;;;;;;;;;;4929627;29;20031;-79
2024/02/12 04:46:56;;;;;;;7.15;2.08;;;;;;;;;;4937124;29;20047;-79
2024/02/12 04:49:22;;;;;;;5.55;2.13;;;;;;;;;;4927391;29;20034;-79
2024/02/12 04:51:48;;;;;;;5.30;2.03;;;;;;;;;;4928505;29;20056;-79
2024/02/12 04:54:15;;;;;;;5.88;2.10;;;;;;;;;;4927482;29;20094;-79
2024/02/12 04:56:42;;;;;;;4.53;2.00;;;;;;;;;;4943388;29;20095;-80
2024/02/12 04:59:18;;;;;;;6.95;2.63;;;;;;;;;;4913037;29;20305;-79
2024/02/12 05:01:45;;;;;;;6.93;2.30;;;;;;;;;;4945581;29;20036;-78
2024/02/12 05:04:11;;;;;;;6.90;2.05;;;;;;;;;;4933349;29;20031;-79
2024/02/12 05:06:37;;;;;;;5.68;1.80;;;;;;;;;;4932528;29;20440;-79
2024/02/12 05:09:10;;;;;;;6.97;1.80;;;;;;;;;;4917002;29;20051;-79
2024/02/12 05:11:36;;;;;;;5.22;1.92;;;;;;;;;;4898792;29;20036;-79
2024/02/12 05:14:02;;;;;;;4.30;2.03;;;;;;;;;;4914918;29;20036;-79
2024/02/12 05:16:32;;;;;;;5.68;2.03;;;;;;;;;;4917624;29;20035;-78
2024/02/12 05:24:34;;;;;;;5.93;2.38;;;;;;;;;;4937794;29;20103;-78
2024/02/12 05:27:00;;;;;;;7.03;2.38;;;;;;;;;;4917195;29;20083;-79
2024/02/12 05:29:26;;;;;;;6.53;2.30;;;;;;;;;;4951461;29;20067;-79
2024/02/12 05:31:54;;;;;;;4.20;1.75;;;;;;;;;;4939495;29;20051;-79
2024/02/12 05:34:20;;;;;;;6.68;1.98;;;;;;;;;;4938758;29;20052;-80
2024/02/12 05:36:47;;;;;;;7.68;2.10;;;;;;;;;;4946487;29;20032;-80
2024/02/12 05:39:13;;;;;;;4.68;2.00;;;;;;;;;;4933221;29;20034;-79
2024/02/12 05:41:39;;;;;;;3.53;1.90;;;;;;;;;;4949805;29;20123;-78
2024/02/12 05:44:05;;;;;;;6.10;2.03;;;;;;;;;;4926810;29;20399;-79
2024/02/12 05:46:32;;;;;;;7.88;2.50;;;;;;;;;;4923436;29;20028;-78
2024/02/12 05:48:59;;;;;;;5.22;2.22;;;;;;;;;;4925215;29;20067;-79
2024/02/12 05:51:26;;;;;;;6.13;2.28;;;;;;;;;;4917975;29;20087;-77
2024/02/12 05:53:51;;;;;;;5.32;2.05;;;;;;;;;;4910399;29;20044;-79
2024/02/12 05:56:20;;;;;;;6.00;2.13;;;;;;;;;;4930335;29;20092;-79
2024/02/12 05:58:46;;;;;;;7.63;2.75;;;;;;;;;;4925548;29;20046;-79
2024/02/12 06:01:12;;;;;;;4.00;1.92;;;;;;;;;;4941317;29;20023;-79
2024/02/12 06:03:37;;;;;;;6.03;2.53;;;;;;;;;;4910432;29;20559;-80
2024/02/12 06:06:03;;;;;;;4.43;2.00;;;;;;;;;;4902869;29;20529;-79
2024/02/12 06:08:30;;;;;;;5.63;2.13;;;;;;;;;;4908772;29;20047;-79
2024/02/12 06:10:56;;;;;;;4.80;1.80;;;;;;;;;;4940864;29;20083;-79
2024/02/12 06:13:21;;;;;;;4.40;2.10;;;;;;;;;;4907412;29;20028;-79
2024/02/12 06:15:47;;;;;;;6.63;2.00;;;;;;;;;;4926872;29;20396;-79
2024/02/12 06:18:13;;;;;;;5.80;1.80;;;;;;;;;;4943806;29;20550;-79
2024/02/12 06:20:39;;;;;;;4.25;2.08;;;;;;;;;;4932569;29;20028;-77
2024/02/12 06:23:05;;;;;;;6.18;2.25;;;;;;;;;;4931213;29;20075;-80
2024/02/12 06:25:31;;;;;;;9.13;2.25;;;;;;;;;;4932681;29;20051;-79
2024/02/12 06:27:57;;;;;;;6.53;2.05;;;;;;;;;;4925945;29;20111;-78
2024/02/12 06:30:23;;;;;;;4.82;2.00;;;;;;;;;;4931952;29;20028;-80
2024/02/12 06:32:49;;;;;;;4.53;2.22;;;;;;;;;;4944538;29;20091;-77
2024/02/12 06:35:17;;;;;;;4.82;2.10;;;;;;;;;;4944750;29;20039;-78
2024/02/12 06:37:50;;;;;;;4.82;1.92;;;;;;;;;;4941821;29;20051;-79
2024/02/12 06:40:15;;;;;;;5.18;2.20;;;;;;;;;;4910691;29;20040;-78
2024/02/12 06:42:42;;;;;;;3.47;2.00;;;;;;;;;;4920904;29;20035;-78
2024/02/12 06:45:08;;;;;;;6.78;2.13;;;;;;;;;;4889729;29;20067;-77
2024/02/12 06:47:34;;;;;;;10.13;2.20;;;;;;;;;;4901346;29;20039;-79
2024/02/12 06:50:00;;;;;;;7.07;2.15;;;;;;;;;;4905585;29;20394;-78
2024/02/12 06:52:26;;;;;;;4.95;2.17;;;;;;;;;;4922084;29;20048;-78
2024/02/12 06:54:51;;;;;;;6.18;2.47;;;;;;;;;;4921130;29;20040;-78
2024/02/12 06:57:17;;;;;;;6.57;2.53;;;;;;;;;;4937280;29;20043;-77
2024/02/12 06:59:42;;;;;;;4.97;2.17;;;;;;;;;;4938480;29;20106;-79
2024/02/12 07:02:19;;;;;;;4.75;2.10;;;;;;;;;;4937292;29;20024;-78
2024/02/12 07:04:47;;;;;;;4.80;2.30;;;;;;;;;;4918709;29;20104;-79
2024/02/12 07:07:13;;;;;;;6.40;2.20;;;;;;;;;;4920233;29;20027;-80
2024/02/12 07:09:39;;;;;;;6.47;2.30;;;;;;;;;;4903974;29;20024;-78
2024/02/12 07:12:06;;;;;;;6.18;2.25;;;;;;;;;;4906865;29;20035;-78
2024/02/12 07:14:32;;;;;;;5.47;2.08;;;;;;;;;;4919689;29;20031;-79
2024/02/12 07:16:59;;;;;;;4.40;2.00;;;;;;;;;;4920401;29;20044;-79
2024/02/12 07:19:26;;;;;;;4.55;2.30;;;;;;;;;;4921363;29;20071;-79
2024/02/12 07:21:52;;;;;;;5.80;2.38;;;;;;;;;;4943334;29;20031;-78
2024/02/12 07:24:18;;;;;;;4.82;2.03;;;;;;;;;;4908749;29;20020;-79
2024/02/12 07:26:46;;;;;;;5.45;2.20;;;;;;;;;;4903794;29;20035;-79
2024/02/12 07:29:11;;;;;;;5.35;2.17;;;;;;;;;;4934217;29;20419;-78
2024/02/12 07:31:39;;;;;;;5.15;2.25;;;;;;;;;;4916668;29;20038;-79
2024/02/12 07:34:05;;;;;;;4.28;2.00;;;;;;;;;;4924586;29;20101;-79
2024/02/12 07:36:31;;;;;;;5.20;2.00;;;;;;;;;;4932840;29;20028;-78
2024/02/12 07:38:56;;;;;;;8.45;2.22;;;;;;;;;;4931222;29;20475;-79
2024/02/12 07:41:22;;;;;;;7.30;2.30;;;;;;;;;;4939240;29;20051;-78
2024/02/12 07:43:48;;;;;;;5.03;2.42;;;;;;;;;;4907195;29;20028;-79
2024/02/12 07:46:15;;;;;;;4.50;2.30;;;;;;;;;;4921011;29;20046;-78
2024/02/12 07:48:41;;;;;;;6.43;3.10;;;;;;;;;;4935069;29;20040;-78
2024/02/12 07:51:07;;;;;;;5.47;2.40;;;;;;;;;;4940154;29;20502;-80
2024/02/12 07:53:33;;;;;;;9.30;2.45;;;;;;;;;;4940313;29;20070;-78
2024/02/12 07:55:58;;;;;;;5.65;2.45;;;;;;;;;;4939082;29;20111;-78
2024/02/12 07:58:27;;;;;;;5.25;2.78;;;;;;;;;;4938147;29;20027;-79
2024/02/12 08:00:53;;;;;;;5.75;2.55;;;;;;;;;;4920776;29;20081;-78
2024/02/12 08:03:19;;;;;;;5.20;2.67;;;;;;;;;;4936409;29;20111;-79
2024/02/12 08:05:49;;;;;;;8.20;2.63;;;;;;;;;;4935349;29;20040;-79
2024/02/12 08:08:14;;;;;;;5.18;2.25;;;;;;;;;;4936460;29;20080;-78
2024/02/12 08:10:40;;;;;;;3.70;1.90;;;;;;;;;;4937117;29;20080;-78
2024/02/12 08:13:08;;;;;;;5.07;2.60;;;;;;;;;;4937921;29;20028;-78
2024/02/12 08:15:35;;;;;;;7.95;2.45;;;;;;;;;;4907961;29;20028;-78
2024/02/12 08:18:21;;;;;;;5.35;2.35;;;;;;;;;;4936480;29;20028;-77
2024/02/12 08:20:46;;;;;;;4.05;1.85;;;;;;;;;;4920436;29;20381;-78
2024/02/12 08:23:12;;;;;;;7.35;2.10;;;;;;;;;;4921885;29;20034;-78
2024/02/12 08:25:38;;;;;;;5.75;2.00;;;;;;;;;;4906279;29;20039;-78
2024/02/12 08:28:04;;;;;;;5.18;1.95;;;;;;;;;;4918606;29;20106;-78
2024/02/12 08:30:31;;;;;;;7.45;2.20;;;;;;;;;;4912421;29;20036;-78
2024/02/12 08:32:59;;;;;;;8.13;3.30;;;;;;;;;;4911911;29;20035;-78
2024/02/12 08:35:24;;;;;;;4.70;2.10;;;;;;;;;;4918999;29;20063;-79
2024/02/12 08:37:56;;;;;;;6.93;2.03;;;;;;;;;;4938949;29;20038;-78
2024/02/12 08:40:22;;;;;;;5.15;2.40;;;;;;;;;;4938940;28;20589;-78
2024/02/12 08:42:50;;;;;;;4.10;2.13;;;;;;;;;;4952510;29;20027;-78
2024/02/12 08:45:15;;;;;;;6.32;2.65;;;;;;;;;;4954362;28;20035;-77
2024/02/12 08:47:48;;;;;;;5.45;2.33;;;;;;;;;;4937837;29;20423;-79
2024/02/12 08:50:15;;;;;;;5.25;2.50;;;;;;;;;;4922808;29;20040;-78
2024/02/12 08:52:41;;;;;;;12.73;2.50;;;;;;;;;;4937810;29;20032;-78
2024/02/12 08:55:10;;;;;;;6.05;2.83;;;;;;;;;;4938618;29;20038;-77
2024/02/12 08:57:41;;;;;;;5.25;2.30;;;;;;;;;;4939172;29;20555;-78
2024/02/12 09:00:11;;;;;;;7.18;2.20;;;;;;;;;;4938565;29;20106;-78
2024/02/12 09:02:53;;;;;;;6.38;2.30;;;;;;;;;;4940169;29;20478;-78
2024/02/12 09:05:18;;;;;;;4.97;2.13;;;;;;;;;;4937384;29;20039;-77
2024/02/12 09:07:44;;;;;;;4.72;2.35;;;;;;;;;;4938354;29;20035;-78
2024/02/12 09:10:11;;;;;;;5.40;2.05;;;;;;;;;;4939948;29;20036;-78
2024/02/12 09:12:38;;;;;;;9.32;2.50;;;;;;;;;;4939134;29;20426;-78
2024/02/12 09:15:10;;;;;;;4.70;2.08;;;;;;;;;;4938842;29;20090;-78
2024/02/12 09:17:38;;;;;;;7.00;2.35;;;;;;;;;;4925858;29;20059;-79
2024/02/12 09:20:06;;;;;;;5.13;3.10;;;;;;;;;;4925211;29;20038;-78
2024/02/12 09:22:33;;;;;;;5.05;2.20;;;;;;;;;;4921112;29;20056;-78
2024/02/12 09:25:03;;;;;;;4.73;1.67;;;;;;;;;;4924275;29;20079;-77
2024/02/12 09:27:31;;;;;;;4.97;2.35;;;;;;;;;;4936633;29;20284;-77
2024/02/12 09:29:57;;;;;;;6.60;2.80;;;;;;;;;;4913638;29;20035;-78
2024/02/12 09:32:23;;;;;;;4.45;2.40;;;;;;;;;;4900698;29;20035;-77
2024/02/12 09:34:49;;;;;;;6.05;2.67;;;;;;;;;;4922185;29;20126;-78
2024/02/12 09:37:18;;;;;;;7.45;2.63;;;;;;;;;;4903218;29;20024;-78
2024/02/12 09:39:44;;;;;;;5.95;2.78;;;;;;;;;;4906532;29;20043;-78
2024/02/12 09:42:10;;;;;;;6.50;2.90;;;;;;;;;;4907223;29;20036;-78
2024/02/12 09:44:40;;;;;;;5.43;2.70;;;;;;;;;;4919962;29;20114;-78
2024/02/12 09:47:09;;;;;;;7.43;3.20;;;;;;;;;;4889483;29;20492;-77
2024/02/12 09:49:34;;;;;;;5.03;2.58;;;;;;;;;;4917246;29;20636;-77
2024/02/12 09:52:01;;;;;;;6.10;2.55;;;;;;;;;;4939324;29;20087;-78
2024/02/12 09:54:26;;;;;;;7.28;3.17;;;;;;;;;;4939223;29;20055;-77
2024/02/12 09:56:52;;;;;;;4.15;2.72;;;;;;;;;;4935102;29;20484;-77
2024/02/12 09:59:17;;;;;;;6.95;3.30;;;;;;;;;;4937472;29;20443;-78
2024/02/12 10:01:43;;;;;;;9.52;3.30;;;;;;;;;;4936243;29;20034;-78
2024/02/12 10:04:29;;;;;;;6.65;3.10;;;;;;;;;;4923371;29;20038;-78
2024/02/12 10:07:14;;;;;;;8.13;3.20;;;;;;;;;;4936434;29;20103;-78
2024/02/12 10:10:00;;;;;;;7.35;3.20;;;;;;;;;;4936397;29;20126;-77
2024/02/12 10:12:52;;;;;;;6.38;3.28;;;;;;;;;;4936151;29;20039;-79
2024/02/12 10:15:38;;;;;;;8.57;2.80;;;;;;;;;;4904487;29;20058;-79
2024/02/12 10:18:24;;;;;;;4.97;2.38;;;;;;;;;;4935640;29;20163;-78
2024/02/12 10:21:11;;;;;;;5.63;2.80;;;;;;;;;;4937819;29;20028;-78
2024/02/12 10:24:01;;;;;;;8.80;2.90;;;;;;;;;;4938521;29;20039;-78
2024/02/12 10:26:50;;;;;;;8.27;2.58;;;;;;;;;;4937999;29;20039;-78
2024/02/12 10:29:37;;;;;;;5.55;2.65;;;;;;;;;;4945395;29;20043;-79
2024/02/12 10:32:23;;;;;;;5.57;2.53;;;;;;;;;;4931315;29;20066;-81
2024/02/12 10:35:11;;;;;;;7.60;2.50;;;;;;;;;;4912530;29;20127;-78
2024/02/12 10:37:57;;;;;;;5.78;3.10;;;;;;;;;;4917117;29;20064;-77
2024/02/12 10:41:03;;;;;;;6.47;3.47;;;;;;;;;;4924903;29;20074;-78
2024/02/12 10:43:51;;;;;;;13.65;3.83;;;;;;;;;;4926138;29;20027;-79
2024/02/12 10:46:36;;;;;;;10.20;3.33;;;;;;;;;;4937856;29;20098;-78
2024/02/12 10:49:23;;;;;;;5.22;2.92;;;;;;;;;;4939935;29;20039;-78
2024/02/12 10:52:09;;;;;;;7.93;3.45;;;;;;;;;;4921476;29;20044;-78
2024/02/12 10:54:55;;;;;;;6.30;2.90;;;;;;;;;;4920569;29;20515;-77
2024/02/12 10:57:22;;;;;;;8.10;3.17;;;;;;;;;;4942808;29;20038;-78
2024/02/12 11:00:00;;;;;;;5.70;2.97;;;;;;;;;;4940367;29;20036;-78
2024/02/12 11:02:26;;;;;;;6.40;2.55;;;;;;;;;;4941274;29;20066;-78
2024/02/12 11:04:59;;;;;;;6.55;2.78;;;;;;;;;;4946340;29;20032;-77
2024/02/12 11:07:28;;;;;;;6.72;2.63;;;;;;;;;;4928164;29;20028;-78
2024/02/12 11:10:01;;;;;;;5.63;2.78;;;;;;;;;;4944064;29;20531;-78
2024/02/12 11:12:27;;;;;;;5.18;3.08;;;;;;;;;;4920365;29;20261;-78
2024/02/12 11:14:52;;;;;;;7.95;3.05;;;;;;;;;;4918504;29;20578;-78
2024/02/12 11:17:27;;;;;;;10.48;3.33;;;;;;;;;;4923780;29;20027;-78
2024/02/12 11:19:53;;;;;;;9.55;3.08;;;;;;;;;;4939757;29;20031;-77
2024/02/12 11:22:29;;;;;;;8.20;3.15;;;;;;;;;;4919975;29;20024;-79
2024/02/12 11:24:59;;;;;;;7.40;3.00;;;;;;;;;;4931081;29;20369;-78
2024/02/12 11:27:30;;;;;;;5.53;2.60;;;;;;;;;;4938639;29;20020;-78
2024/02/12 11:29:59;;;;;;;5.28;2.50;;;;;;;;;;4939908;29;20034;-79
2024/02/12 11:32:24;;;;;;;7.95;2.97;;;;;;;;;;4921996;29;20079;-77
2024/02/12 11:34:51;;;;;;;9.95;2.75;;;;;;;;;;4904618;29;20048;-79
2024/02/12 11:37:17;;;;;;;5.80;2.53;;;;;;;;;;4922236;29;20024;-78
2024/02/12 11:39:44;;;;;;;5.10;2.38;;;;;;;;;;4931599;29;20035;-79
2024/02/12 11:42:10;;;;;;;7.55;3.10;;;;;;;;;;4921859;29;20115;-79
2024/02/12 11:44:35;;;;;;;5.90;2.33;;;;;;;;;;4939097;29;20059;-78
2024/02/12 11:47:04;;;;;;;7.82;2.80;;;;;;;;;;4907238;29;20062;-79
2024/02/12 11:49:29;;;;;;;5.72;2.83;;;;;;;;;;4902284;29;20484;-79
2024/02/12 11:51:55;;;;;;;8.50;2.65;;;;;;;;;;4935493;29;20082;-80
2024/02/12 11:54:21;;;;;;;4.55;2.22;;;;;;;;;;4904777;29;20307;-79
2024/02/12 11:56:46;;;;;;;5.90;2.60;;;;;;;;;;4923023;29;20040;-78
2024/02/12 11:59:14;;;;;;;5.40;2.63;;;;;;;;;;4924206;29;20036;-79
2024/02/12 12:01:41;;;;;;;7.45;2.70;;;;;;;;;;4919800;29;20423;-77
2024/02/12 12:04:07;;;;;;;5.13;2.15;;;;;;;;;;4906548;29;20028;-78
2024/02/12 12:06:34;;;;;;;5.03;2.45;;;;;;;;;;4916755;29;20083;-77
2024/02/12 12:09:00;;;;;;;4.75;2.65;;;;;;;;;;4920682;29;20114;-77
2024/02/12 12:11:26;;;;;;;4.55;2.10;;;;;;;;;;4933333;29;20079;-77
2024/02/12 12:13:59;;;;;;;8.00;2.40;;;;;;;;;;4918524;29;20036;-78
2024/02/12 12:16:25;;;;;;;4.10;2.20;;;;;;;;;;4937362;29;20066;-77
2024/02/12 12:18:50;;;;;;;5.30;2.60;;;;;;;;;;4937142;29;20046;-77
2024/02/12 12:21:18;;;;;;;4.70;2.95;;;;;;;;;;4913251;29;20028;-77
2024/02/12 12:23:44;;;;;;;6.05;2.40;;;;;;;;;;4921419;29;20032;-77
2024/02/12 12:26:11;;;;;;;3.15;1.85;;;;;;;;;;4922094;29;20472;-77
2024/02/12 12:28:37;;;;;;;4.13;1.90;;;;;;;;;;4936562;29;20047;-78
2024/02/12 12:31:04;;;;;;;6.13;3.13;;;;;;;;;;4900103;29;20119;-78
2024/02/12 12:33:31;;;;;;;4.00;2.00;;;;;;;;;;4951027;29;20042;-77
2024/02/12 12:35:56;;;;;;;4.15;1.95;;;;;;;;;;4921215;29;20044;-78
2024/02/12 12:38:22;;;;;;;3.78;1.83;;;;;;;;;;4919659;29;20055;-77
2024/02/12 12:40:48;;;;;;;3.78;1.75;;;;;;;;;;4917627;29;20032;-78
2024/02/12 12:43:16;;;;;;;4.43;1.80;;;;;;;;;;4936429;28;20031;-78
2024/02/12 12:45:41;;;;;;;5.22;1.63;;;;;;;;;;4940183;29;20522;-78
2024/02/12 12:48:12;;;;;;;3.10;1.80;;;;;;;;;;4933779;29;20087;-78
2024/02/12 12:50:39;;;;;;;3.33;1.60;;;;;;;;;;4932799;29;20040;-78
2024/02/12 12:53:06;;;;;;;4.13;1.80;;;;;;;;;;4932790;29;20170;-78
2024/02/12 12:55:32;;;;;;;4.10;2.17;;;;;;;;;;4921347;29;20024;-78
2024/02/12 12:57:59;;;;;;;3.42;1.83;;;;;;;;;;4920397;29;20043;-78
2024/02/12 13:00:30;;;;;;;5.00;1.90;;;;;;;;;;4915012;29;20087;-76
2024/02/12 13:03:01;;;;;;;3.58;1.83;;;;;;;;;;4936733;29;20038;-76
2024/02/12 13:05:27;;;;;;;8.70;2.47;;;;;;;;;;4916357;29;20455;-76
2024/02/12 13:07:53;;;;;;;7.05;2.67;;;;;;;;;;4945284;29;20090;-76
2024/02/12 13:10:19;;;;;;;5.18;2.55;;;;;;;;;;4956524;28;20055;-76
2024/02/12 13:12:45;;;;;;;3.92;2.30;;;;;;;;;;4956836;28;20047;-77
2024/02/12 13:15:12;;;;;;;6.25;2.28;;;;;;;;;;4954720;28;20035;-77
2024/02/12 13:17:47;;;;;;;7.00;2.25;;;;;;;;;;4945420;28;20031;-77
2024/02/12 13:20:21;;;;;;;11.30;2.55;;;;;;;;;;4920203;29;20440;-77
2024/02/12 13:22:57;;;;;;;5.13;2.40;;;;;;;;;;4933703;29;20032;-76
2024/02/12 13:25:31;;;;;;;6.82;2.30;;;;;;;;;;4939688;29;20078;-76
2024/02/12 13:28:00;;;;;;;5.63;2.40;;;;;;;;;;4942570;29;20038;-77
2024/02/12 13:30:33;;;;;;;5.07;2.70;;;;;;;;;;4926822;29;20063;-76
2024/02/12 13:33:00;;;;;;;3.97;2.40;;;;;;;;;;4910675;29;20039;-77
2024/02/12 13:35:27;;;;;;;5.97;2.90;;;;;;;;;;4925689;29;20043;-76
2024/02/12 13:37:52;;;;;;;5.35;2.75;;;;;;;;;;4939092;29;20114;-77
2024/02/12 13:40:18;;;;;;;8.18;3.08;;;;;;;;;;4940337;29;20111;-79
2024/02/12 13:42:46;;;;;;;5.93;3.08;;;;;;;;;;4928030;29;20032;-77
2024/02/12 13:45:13;;;;;;;6.72;2.67;;;;;;;;;;4923329;29;20035;-77
2024/02/12 13:47:46;;;;;;;5.60;2.70;;;;;;;;;;4917047;29;20083;-77
2024/02/12 13:50:11;;;;;;;2.53;1.40;;;;;;;;;;4920081;29;20429;-78
2024/02/12 13:52:49;;;;;;;2.55;1.33;;;;;;;;;;4916766;29;20040;-78
2024/02/12 13:55:14;;;;;;;2.95;1.50;;;;;;;;;;4885154;29;20035;-78
2024/02/12 13:57:41;;;;;;;2.75;1.30;;;;;;;;;;4933725;29;20036;-78
2024/02/12 14:00:17;;;;;;;4.22;1.90;;;;;;;;;;4919880;29;20035;-76
2024/02/12 14:02:47;;;;;;;3.33;1.70;;;;;;;;;;4937344;29;20570;-76
2024/02/12 14:05:19;;;;;;;4.35;1.80;;;;;;;;;;4936890;29;20038;-78
2024/02/12 14:07:49;;;;;;;3.38;1.88;;;;;;;;;;4934807;29;20024;-77
2024/02/12 14:10:18;;;;;;;3.35;1.80;;;;;;;;;;4919987;29;20480;-77
2024/02/12 14:12:47;;;;;;;3.53;1.90;;;;;;;;;;4936557;29;20039;-76
2024/02/12 14:15:13;;;;;;;;;;;;;;;;;;4919096;29;20398;-77
2024/02/12 14:17:42;;;;;;;4.15;2.30;;;;;;;;;;4909454;29;19910;-77
2024/02/12 14:20:19;;;;;;;7.03;3.72;;;;;;;;;;4900633;29;20377;-77
2024/02/12 14:22:46;;;;;;;4.78;2.70;;;;;;;;;;4934685;28;20145;-77
2024/02/12 14:25:14;;;;;;;6.47;2.95;;;;;;;;;;4932501;29;20030;-76
2024/02/12 14:27:40;;;;;;;5.63;3.03;;;;;;;;;;4945684;28;20110;-76
2024/02/12 14:30:12;;;;;;;7.38;3.20;;;;;;;;;;4917996;29;20503;-78
2024/02/12 14:32:51;;;;;;;4.32;2.70;;;;;;;;;;4910596;29;20032;-77
2024/02/12 14:35:18;;;;;;;5.97;2.80;;;;;;;;;;4916298;29;20040;-78
2024/02/12 14:37:45;;;;;;;6.38;2.78;;;;;;;;;;4899780;29;20059;-77
2024/02/12 14:40:11;;;;;;;8.30;4.15;;;;;;;;;;4917923;29;20036;-78
2024/02/12 14:42:37;;;;;;;7.40;3.00;;;;;;;;;;4900692;29;20032;-79
2024/02/12 14:45:05;;;;;;;4.32;2.80;;;;;;;;;;4889416;29;20124;-78
2024/02/12 14:47:41;;;;;;;6.53;2.95;;;;;;;;;;4930889;29;20051;-78
2024/02/12 14:50:07;;;;;;;5.00;2.58;;;;;;;;;;4886557;29;20055;-78
2024/02/12 14:52:32;;;;;;;4.82;2.67;;;;;;;;;;4934208;29;20049;-78
2024/02/12 14:54:59;;;;;;;6.85;3.47;;;;;;;;;;4929829;29;20061;-78
2024/02/12 14:57:24;;;;;;;6.63;3.55;;;;;;;;;;4906066;29;20040;-78
2024/02/12 14:59:52;;;;;;;5.80;3.40;;;;;;;;;;4903776;29;20086;-77
2024/02/12 15:02:17;;;;;;;7.40;2.63;;;;;;;;;;4919536;29;20032;-78
2024/02/12 15:04:46;;;;;;;5.82;2.50;;;;;;;;;;4902741;29;20038;-78
2024/02/12 15:07:11;;;;;;;;;;;;;;;;;;4934266;29;20059;-78
2024/02/12 15:09:46;;;;;;;3.03;1.73;;;;;;;;;;4936699;29;20370;-78